sensor_id;sensor_type;location;lat;lon;timestamp;P1;durP1;ratioP1;P2;durP2;ratioP2
52650;SDS011;38537;47.226;39.702;2022-09-28T00:01:18;5.57;;;3.28;;
52650;SDS011;38537;47.226;39.702;2022-09-28T00:03:51;5.50;;;3.25;;
52650;SDS011;38537;47.226;39.702;2022-09-28T00:06:22;5.00;;;3.10;;
52650;SDS011;38537;47.226;39.702;2022-09-28T00:08:53;7.22;;;3.90;;
52650;SDS011;38537;47.226;39.702;2022-09-28T00:11:20;10.35;;;4.00;;
52650;SDS011;38537;47.226;39.702;2022-09-28T00:13:50;15.40;;;4.53;;
52650;SDS011;38537;47.226;39.702;2022-09-28T00:16:20;12.18;;;3.95;;
52650;SDS011;38537;47.226;39.702;2022-09-28T00:18:49;15.35;;;4.53;;
52650;SDS011;38537;47.226;39.702;2022-09-28T00:21:22;15.32;;;4.95;;
52650;SDS011;38537;47.226;39.702;2022-09-28T00:23:52;13.60;;;4.85;;
52650;SDS011;38537;47.226;39.702;2022-09-28T00:26:43;12.27;;;4.28;;
52650;SDS011;38537;47.226;39.702;2022-09-28T00:29:40;13.43;;;5.15;;
52650;SDS011;38537;47.226;39.702;2022-09-28T00:32:11;12.85;;;4.93;;
52650;SDS011;38537;47.226;39.702;2022-09-28T00:34:40;13.73;;;4.90;;
52650;SDS011;38537;47.226;39.702;2022-09-28T00:37:12;14.18;;;4.63;;
52650;SDS011;38537;47.226;39.702;2022-09-28T00:39:40;13.70;;;4.40;;
52650;SDS011;38537;47.226;39.702;2022-09-28T00:42:21;11.20;;;4.32;;
52650;SDS011;38537;47.226;39.702;2022-09-28T00:44:53;9.00;;;4.28;;
52650;SDS011;38537;47.226;39.702;2022-09-28T00:50:30;9.98;;;4.38;;
52650;SDS011;38537;47.226;39.702;2022-09-28T00:53:09;9.32;;;4.25;;
52650;SDS011;38537;47.226;39.702;2022-09-28T00:55:43;10.60;;;4.20;;
52650;SDS011;38537;47.226;39.702;2022-09-28T00:58:17;7.73;;;3.87;;
52650;SDS011;38537;47.226;39.702;2022-09-28T01:00:47;7.47;;;4.30;;
52650;SDS011;38537;47.226;39.702;2022-09-28T01:03:15;11.90;;;4.38;;
52650;SDS011;38537;47.226;39.702;2022-09-28T01:05:43;7.47;;;4.18;;
52650;SDS011;38537;47.226;39.702;2022-09-28T01:08:11;8.05;;;3.50;;
52650;SDS011;38537;47.226;39.702;2022-09-28T01:10:40;8.07;;;3.60;;
52650;SDS011;38537;47.226;39.702;2022-09-28T01:13:12;7.55;;;3.38;;
52650;SDS011;38537;47.226;39.702;2022-09-28T01:16:30;11.70;;;4.07;;
52650;SDS011;38537;47.226;39.702;2022-09-28T01:21:54;8.23;;;3.30;;
52650;SDS011;38537;47.226;39.702;2022-09-28T01:24:47;10.50;;;3.20;;
52650;SDS011;38537;47.226;39.702;2022-09-28T01:29:52;7.63;;;3.17;;
52650;SDS011;38537;47.226;39.702;2022-09-28T01:32:42;7.93;;;3.20;;
52650;SDS011;38537;47.226;39.702;2022-09-28T01:35:34;4.90;;;2.97;;
52650;SDS011;38537;47.226;39.702;2022-09-28T01:38:18;8.10;;;3.08;;
52650;SDS011;38537;47.226;39.702;2022-09-28T01:40:47;10.25;;;3.45;;
52650;SDS011;38537;47.226;39.702;2022-09-28T01:43:27;7.90;;;3.55;;
52650;SDS011;38537;47.226;39.702;2022-09-28T01:45:59;10.60;;;4.18;;
52650;SDS011;38537;47.226;39.702;2022-09-28T01:51:13;8.00;;;3.40;;
52650;SDS011;38537;47.226;39.702;2022-09-28T01:53:50;6.53;;;3.40;;
52650;SDS011;38537;47.226;39.702;2022-09-28T01:56:25;5.20;;;3.17;;
52650;SDS011;38537;47.226;39.702;2022-09-28T01:58:58;11.48;;;3.80;;
52650;SDS011;38537;47.226;39.702;2022-09-28T02:01:41;5.47;;;3.38;;
52650;SDS011;38537;47.226;39.702;2022-09-28T02:04:27;4.43;;;2.80;;
52650;SDS011;38537;47.226;39.702;2022-09-28T02:07:03;7.30;;;4.32;;
52650;SDS011;38537;47.226;39.702;2022-09-28T02:09:45;6.50;;;3.38;;
52650;SDS011;38537;47.226;39.702;2022-09-28T02:12:23;4.25;;;3.03;;
52650;SDS011;38537;47.226;39.702;2022-09-28T02:14:58;4.53;;;3.08;;
52650;SDS011;38537;47.226;39.702;2022-09-28T02:17:36;5.75;;;3.15;;
52650;SDS011;38537;47.226;39.702;2022-09-28T02:20:04;6.38;;;2.83;;
52650;SDS011;38537;47.226;39.702;2022-09-28T02:22:35;5.38;;;2.67;;
52650;SDS011;38537;47.226;39.702;2022-09-28T02:25:28;3.83;;;2.70;;
52650;SDS011;38537;47.226;39.702;2022-09-28T02:28:18;7.30;;;2.55;;
52650;SDS011;38537;47.226;39.702;2022-09-28T02:30:45;5.00;;;2.80;;
52650;SDS011;38537;47.226;39.702;2022-09-28T02:33:46;3.83;;;2.70;;
52650;SDS011;38537;47.226;39.702;2022-09-28T02:36:09;5.25;;;2.80;;
52650;SDS011;38537;47.226;39.702;2022-09-28T02:38:37;6.03;;;3.80;;
52650;SDS011;38537;47.226;39.702;2022-09-28T02:47:09;5.93;;;2.67;;
52650;SDS011;38537;47.226;39.702;2022-09-28T02:49:43;4.82;;;2.67;;
52650;SDS011;38537;47.226;39.702;2022-09-28T02:52:31;4.55;;;2.70;;
52650;SDS011;38537;47.226;39.702;2022-09-28T03:00:44;5.35;;;3.00;;
52650;SDS011;38537;47.226;39.702;2022-09-28T03:03:30;4.18;;;2.45;;
52650;SDS011;38537;47.226;39.702;2022-09-28T03:06:13;4.20;;;2.30;;
52650;SDS011;38537;47.226;39.702;2022-09-28T03:11:27;4.00;;;2.70;;
52650;SDS011;38537;47.226;39.702;2022-09-28T03:14:02;5.07;;;2.72;;
52650;SDS011;38537;47.226;39.702;2022-09-28T03:16:47;5.78;;;2.53;;
52650;SDS011;38537;47.226;39.702;2022-09-28T03:19:15;3.72;;;2.38;;
52650;SDS011;38537;47.226;39.702;2022-09-28T03:21:45;4.13;;;2.30;;
52650;SDS011;38537;47.226;39.702;2022-09-28T03:24:13;4.22;;;2.50;;
52650;SDS011;38537;47.226;39.702;2022-09-28T03:26:40;4.45;;;2.42;;
52650;SDS011;38537;47.226;39.702;2022-09-28T03:29:09;5.35;;;3.03;;
52650;SDS011;38537;47.226;39.702;2022-09-28T03:31:37;3.92;;;2.63;;
52650;SDS011;38537;47.226;39.702;2022-09-28T03:34:04;4.32;;;2.60;;
52650;SDS011;38537;47.226;39.702;2022-09-28T03:36:31;3.58;;;2.50;;
52650;SDS011;38537;47.226;39.702;2022-09-28T03:38:58;6.10;;;2.67;;
52650;SDS011;38537;47.226;39.702;2022-09-28T03:41:26;6.15;;;2.67;;
52650;SDS011;38537;47.226;39.702;2022-09-28T03:43:54;3.58;;;2.78;;
52650;SDS011;38537;47.226;39.702;2022-09-28T03:46:23;4.70;;;2.67;;
52650;SDS011;38537;47.226;39.702;2022-09-28T03:48:55;5.25;;;2.70;;
52650;SDS011;38537;47.226;39.702;2022-09-28T03:51:24;4.88;;;2.63;;
52650;SDS011;38537;47.226;39.702;2022-09-28T03:53:52;4.63;;;3.05;;
52650;SDS011;38537;47.226;39.702;2022-09-28T03:56:19;4.88;;;2.55;;
52650;SDS011;38537;47.226;39.702;2022-09-28T03:58:47;5.47;;;2.75;;
52650;SDS011;38537;47.226;39.702;2022-09-28T04:01:15;5.38;;;2.65;;
52650;SDS011;38537;47.226;39.702;2022-09-28T04:03:46;7.03;;;2.88;;
52650;SDS011;38537;47.226;39.702;2022-09-28T04:06:14;3.55;;;2.63;;
52650;SDS011;38537;47.226;39.702;2022-09-28T04:08:42;4.72;;;2.78;;
52650;SDS011;38537;47.226;39.702;2022-09-28T04:11:10;7.28;;;3.00;;
52650;SDS011;38537;47.226;39.702;2022-09-28T04:13:37;5.95;;;3.25;;
52650;SDS011;38537;47.226;39.702;2022-09-28T04:16:08;13.20;;;3.00;;
52650;SDS011;38537;47.226;39.702;2022-09-28T04:18:40;4.88;;;3.00;;
52650;SDS011;38537;47.226;39.702;2022-09-28T04:21:31;5.55;;;2.80;;
52650;SDS011;38537;47.226;39.702;2022-09-28T04:24:03;6.03;;;3.13;;
52650;SDS011;38537;47.226;39.702;2022-09-28T04:26:31;6.53;;;3.00;;
52650;SDS011;38537;47.226;39.702;2022-09-28T04:28:58;5.70;;;3.10;;
52650;SDS011;38537;47.226;39.702;2022-09-28T04:31:48;5.65;;;3.00;;
52650;SDS011;38537;47.226;39.702;2022-09-28T04:34:21;5.55;;;3.22;;
52650;SDS011;38537;47.226;39.702;2022-09-28T04:36:49;3.88;;;2.60;;
52650;SDS011;38537;47.226;39.702;2022-09-28T04:39:17;6.72;;;3.00;;
52650;SDS011;38537;47.226;39.702;2022-09-28T04:41:51;5.10;;;2.90;;
52650;SDS011;38537;47.226;39.702;2022-09-28T04:44:19;6.63;;;3.15;;
52650;SDS011;38537;47.226;39.702;2022-09-28T04:46:48;4.68;;;2.97;;
52650;SDS011;38537;47.226;39.702;2022-09-28T04:49:27;6.78;;;3.35;;
52650;SDS011;38537;47.226;39.702;2022-09-28T04:52:05;4.97;;;2.88;;
52650;SDS011;38537;47.226;39.702;2022-09-28T04:54:33;5.50;;;2.88;;
52650;SDS011;38537;47.226;39.702;2022-09-28T04:57:01;7.60;;;2.97;;
52650;SDS011;38537;47.226;39.702;2022-09-28T04:59:30;6.10;;;2.60;;
52650;SDS011;38537;47.226;39.702;2022-09-28T05:01:58;7.57;;;3.22;;
52650;SDS011;38537;47.226;39.702;2022-09-28T05:04:44;5.78;;;2.60;;
52650;SDS011;38537;47.226;39.702;2022-09-28T05:07:44;5.60;;;2.97;;
52650;SDS011;38537;47.226;39.702;2022-09-28T05:10:12;7.38;;;3.28;;
52650;SDS011;38537;47.226;39.702;2022-09-28T05:12:40;4.80;;;2.90;;
52650;SDS011;38537;47.226;39.702;2022-09-28T05:15:16;5.68;;;2.90;;
52650;SDS011;38537;47.226;39.702;2022-09-28T05:17:51;5.85;;;3.00;;
52650;SDS011;38537;47.226;39.702;2022-09-28T05:20:26;5.55;;;3.13;;
52650;SDS011;38537;47.226;39.702;2022-09-28T05:22:57;6.28;;;3.42;;
52650;SDS011;38537;47.226;39.702;2022-09-28T05:25:25;6.30;;;3.75;;
52650;SDS011;38537;47.226;39.702;2022-09-28T05:28:05;6.70;;;3.55;;
52650;SDS011;38537;47.226;39.702;2022-09-28T05:30:39;8.90;;;3.85;;
52650;SDS011;38537;47.226;39.702;2022-09-28T05:33:30;11.27;;;3.85;;
52650;SDS011;38537;47.226;39.702;2022-09-28T05:36:09;10.80;;;4.15;;
52650;SDS011;38537;47.226;39.702;2022-09-28T05:38:42;12.57;;;5.00;;
52650;SDS011;38537;47.226;39.702;2022-09-28T05:41:10;9.90;;;4.20;;
52650;SDS011;38537;47.226;39.702;2022-09-28T05:43:39;13.95;;;4.43;;
52650;SDS011;38537;47.226;39.702;2022-09-28T05:46:06;7.35;;;4.55;;
52650;SDS011;38537;47.226;39.702;2022-09-28T05:48:37;10.63;;;4.30;;
52650;SDS011;38537;47.226;39.702;2022-09-28T05:51:05;10.95;;;3.80;;
52650;SDS011;38537;47.226;39.702;2022-09-28T05:53:33;8.52;;;3.88;;
52650;SDS011;38537;47.226;39.702;2022-09-28T05:56:04;7.20;;;4.13;;
52650;SDS011;38537;47.226;39.702;2022-09-28T05:58:34;7.60;;;3.90;;
52650;SDS011;38537;47.226;39.702;2022-09-28T06:01:01;7.28;;;3.90;;
52650;SDS011;38537;47.226;39.702;2022-09-28T06:03:29;7.97;;;3.80;;
52650;SDS011;38537;47.226;39.702;2022-09-28T06:05:59;5.90;;;3.50;;
52650;SDS011;38537;47.226;39.702;2022-09-28T06:08:30;9.73;;;3.03;;
52650;SDS011;38537;47.226;39.702;2022-09-28T06:11:21;5.00;;;3.00;;
52650;SDS011;38537;47.226;39.702;2022-09-28T06:13:54;6.25;;;3.47;;
52650;SDS011;38537;47.226;39.702;2022-09-28T06:16:24;4.65;;;3.00;;
52650;SDS011;38537;47.226;39.702;2022-09-28T06:18:51;6.97;;;3.03;;
52650;SDS011;38537;47.226;39.702;2022-09-28T06:21:32;5.82;;;3.30;;
52650;SDS011;38537;47.226;39.702;2022-09-28T06:23:59;5.03;;;3.20;;
52650;SDS011;38537;47.226;39.702;2022-09-28T06:26:27;7.53;;;3.60;;
52650;SDS011;38537;47.226;39.702;2022-09-28T06:28:54;6.05;;;3.08;;
52650;SDS011;38537;47.226;39.702;2022-09-28T06:31:21;7.70;;;3.45;;
52650;SDS011;38537;47.226;39.702;2022-09-28T06:33:52;6.22;;;3.40;;
52650;SDS011;38537;47.226;39.702;2022-09-28T06:36:20;7.38;;;4.07;;
52650;SDS011;38537;47.226;39.702;2022-09-28T06:38:48;5.85;;;3.97;;
52650;SDS011;38537;47.226;39.702;2022-09-28T06:41:16;8.35;;;3.90;;
52650;SDS011;38537;47.226;39.702;2022-09-28T06:43:44;7.00;;;3.50;;
52650;SDS011;38537;47.226;39.702;2022-09-28T06:46:33;6.60;;;3.97;;
52650;SDS011;38537;47.226;39.702;2022-09-28T06:49:34;5.72;;;3.60;;
52650;SDS011;38537;47.226;39.702;2022-09-28T06:52:21;5.68;;;3.40;;
52650;SDS011;38537;47.226;39.702;2022-09-28T06:55:20;5.78;;;3.33;;
52650;SDS011;38537;47.226;39.702;2022-09-28T06:57:59;4.93;;;3.30;;
52650;SDS011;38537;47.226;39.702;2022-09-28T07:00:30;6.68;;;3.58;;
52650;SDS011;38537;47.226;39.702;2022-09-28T07:03:00;5.28;;;2.80;;
52650;SDS011;38537;47.226;39.702;2022-09-28T07:05:53;6.55;;;3.35;;
52650;SDS011;38537;47.226;39.702;2022-09-28T07:08:50;4.57;;;3.20;;
52650;SDS011;38537;47.226;39.702;2022-09-28T07:12:04;3.80;;;3.20;;
52650;SDS011;38537;47.226;39.702;2022-09-28T07:14:59;6.80;;;3.20;;
52650;SDS011;38537;47.226;39.702;2022-09-28T07:17:29;4.43;;;3.25;;
52650;SDS011;38537;47.226;39.702;2022-09-28T07:20:00;6.93;;;3.72;;
52650;SDS011;38537;47.226;39.702;2022-09-28T07:22:43;8.18;;;3.80;;
52650;SDS011;38537;47.226;39.702;2022-09-28T07:25:17;6.72;;;3.60;;
52650;SDS011;38537;47.226;39.702;2022-09-28T07:28:04;5.57;;;3.50;;
52650;SDS011;38537;47.226;39.702;2022-09-28T07:30:51;6.40;;;3.35;;
52650;SDS011;38537;47.226;39.702;2022-09-28T07:33:37;5.50;;;3.00;;
52650;SDS011;38537;47.226;39.702;2022-09-28T07:36:15;5.82;;;3.20;;
52650;SDS011;38537;47.226;39.702;2022-09-28T07:38:46;6.40;;;3.25;;
52650;SDS011;38537;47.226;39.702;2022-09-28T07:41:15;6.75;;;3.30;;
52650;SDS011;38537;47.226;39.702;2022-09-28T07:43:49;6.15;;;2.92;;
52650;SDS011;38537;47.226;39.702;2022-09-28T07:46:18;6.88;;;3.03;;
52650;SDS011;38537;47.226;39.702;2022-09-28T07:48:54;6.45;;;3.40;;
52650;SDS011;38537;47.226;39.702;2022-09-28T07:51:33;6.35;;;3.90;;
52650;SDS011;38537;47.226;39.702;2022-09-28T07:54:39;8.35;;;6.65;;
52650;SDS011;38537;47.226;39.702;2022-09-28T07:57:41;7.93;;;4.72;;
52650;SDS011;38537;47.226;39.702;2022-09-28T08:00:24;6.90;;;4.80;;
52650;SDS011;38537;47.226;39.702;2022-09-28T08:02:59;4.50;;;3.65;;
52650;SDS011;38537;47.226;39.702;2022-09-28T08:05:29;5.95;;;3.35;;
52650;SDS011;38537;47.226;39.702;2022-09-28T08:07:58;5.05;;;3.20;;
52650;SDS011;38537;47.226;39.702;2022-09-28T08:10:28;5.78;;;3.00;;
52650;SDS011;38537;47.226;39.702;2022-09-28T08:13:02;6.47;;;3.28;;
52650;SDS011;38537;47.226;39.702;2022-09-28T08:15:52;4.80;;;2.80;;
52650;SDS011;38537;47.226;39.702;2022-09-28T08:18:30;5.50;;;2.88;;
52650;SDS011;38537;47.226;39.702;2022-09-28T08:20:57;6.97;;;3.03;;
52650;SDS011;38537;47.226;39.702;2022-09-28T08:23:43;5.53;;;2.88;;
52650;SDS011;38537;47.226;39.702;2022-09-28T08:26:10;6.07;;;2.92;;
52650;SDS011;38537;47.226;39.702;2022-09-28T08:28:42;4.43;;;2.72;;
52650;SDS011;38537;47.226;39.702;2022-09-28T08:31:36;5.40;;;2.80;;
52650;SDS011;38537;47.226;39.702;2022-09-28T08:34:37;5.57;;;2.88;;
52650;SDS011;38537;47.226;39.702;2022-09-28T08:37:18;4.78;;;2.83;;
52650;SDS011;38537;47.226;39.702;2022-09-28T08:40:05;4.35;;;2.40;;
52650;SDS011;38537;47.226;39.702;2022-09-28T08:42:52;5.38;;;2.50;;
52650;SDS011;38537;47.226;39.702;2022-09-28T08:45:47;4.75;;;2.70;;
52650;SDS011;38537;47.226;39.702;2022-09-28T08:48:41;4.28;;;2.88;;
52650;SDS011;38537;47.226;39.702;2022-09-28T08:58:13;4.47;;;2.60;;
52650;SDS011;38537;47.226;39.702;2022-09-28T09:00:48;4.80;;;3.00;;
52650;SDS011;38537;47.226;39.702;2022-09-28T09:03:19;3.50;;;2.67;;
52650;SDS011;38537;47.226;39.702;2022-09-28T09:09:04;3.78;;;2.50;;
52650;SDS011;38537;47.226;39.702;2022-09-28T09:17:00;4.90;;;3.10;;
52650;SDS011;38537;47.226;39.702;2022-09-28T09:19:58;5.53;;;2.67;;
52650;SDS011;38537;47.226;39.702;2022-09-28T09:23:00;3.72;;;2.90;;
52650;SDS011;38537;47.226;39.702;2022-09-28T09:25:55;5.05;;;3.42;;
52650;SDS011;38537;47.226;39.702;2022-09-28T09:49:37;5.22;;;3.72;;
52650;SDS011;38537;47.226;39.702;2022-09-28T09:55:06;4.03;;;3.63;;
52650;SDS011;38537;47.226;39.702;2022-09-28T09:58:24;4.72;;;3.40;;
52650;SDS011;38537;47.226;39.702;2022-09-28T10:01:37;6.10;;;3.47;;
52650;SDS011;38537;47.226;39.702;2022-09-28T10:04:28;7.03;;;3.55;;
52650;SDS011;38537;47.226;39.702;2022-09-28T10:07:08;5.68;;;3.50;;
52650;SDS011;38537;47.226;39.702;2022-09-28T10:09:44;3.38;;;2.97;;
52650;SDS011;38537;47.226;39.702;2022-09-28T10:12:30;4.13;;;3.15;;
52650;SDS011;38537;47.226;39.702;2022-09-28T10:14:59;4.13;;;3.22;;
52650;SDS011;38537;47.226;39.702;2022-09-28T10:17:42;4.00;;;3.10;;
52650;SDS011;38537;47.226;39.702;2022-09-28T10:20:30;5.05;;;2.90;;
52650;SDS011;38537;47.226;39.702;2022-09-28T10:23:19;3.28;;;2.72;;
52650;SDS011;38537;47.226;39.702;2022-09-28T10:25:51;3.85;;;2.80;;
52650;SDS011;38537;47.226;39.702;2022-09-28T10:28:46;4.47;;;3.00;;
52650;SDS011;38537;47.226;39.702;2022-09-28T10:34:12;4.65;;;3.17;;
52650;SDS011;38537;47.226;39.702;2022-09-28T10:37:01;7.50;;;3.42;;
52650;SDS011;38537;47.226;39.702;2022-09-28T10:40:09;4.53;;;3.03;;
52650;SDS011;38537;47.226;39.702;2022-09-28T10:42:59;5.20;;;3.25;;
52650;SDS011;38537;47.226;39.702;2022-09-28T10:45:35;6.35;;;3.50;;
52650;SDS011;38537;47.226;39.702;2022-09-28T10:48:03;7.53;;;4.13;;
52650;SDS011;38537;47.226;39.702;2022-09-28T10:50:40;6.47;;;3.60;;
52650;SDS011;38537;47.226;39.702;2022-09-28T10:56:20;5.93;;;4.50;;
52650;SDS011;38537;47.226;39.702;2022-09-28T10:58:59;7.00;;;4.30;;
52650;SDS011;38537;47.226;39.702;2022-09-28T11:01:43;6.88;;;4.55;;
52650;SDS011;38537;47.226;39.702;2022-09-28T11:04:13;5.78;;;4.03;;
52650;SDS011;38537;47.226;39.702;2022-09-28T11:06:48;7.80;;;4.97;;
52650;SDS011;38537;47.226;39.702;2022-09-28T11:12:03;7.32;;;4.60;;
52650;SDS011;38537;47.226;39.702;2022-09-28T11:14:35;7.32;;;5.38;;
52650;SDS011;38537;47.226;39.702;2022-09-28T11:17:36;8.63;;;6.30;;
52650;SDS011;38537;47.226;39.702;2022-09-28T11:22:58;7.68;;;5.72;;
52650;SDS011;38537;47.226;39.702;2022-09-28T11:25:41;8.13;;;5.40;;
52650;SDS011;38537;47.226;39.702;2022-09-28T11:28:16;7.22;;;5.30;;
52650;SDS011;38537;47.226;39.702;2022-09-28T11:30:51;7.72;;;5.43;;
52650;SDS011;38537;47.226;39.702;2022-09-28T11:36:36;8.75;;;4.93;;
52650;SDS011;38537;47.226;39.702;2022-09-28T11:39:14;8.05;;;4.63;;
52650;SDS011;38537;47.226;39.702;2022-09-28T11:44:42;5.38;;;3.90;;
52650;SDS011;38537;47.226;39.702;2022-09-28T11:50:33;8.35;;;4.03;;
52650;SDS011;38537;47.226;39.702;2022-09-28T11:54:00;6.37;;;4.33;;
52650;SDS011;38537;47.226;39.702;2022-09-28T11:59:17;6.68;;;4.00;;
52650;SDS011;38537;47.226;39.702;2022-09-28T12:01:52;5.90;;;3.80;;
52650;SDS011;38537;47.226;39.702;2022-09-28T12:04:57;4.28;;;3.88;;
52650;SDS011;38537;47.226;39.702;2022-09-28T12:08:39;5.40;;;4.30;;
52650;SDS011;38537;47.226;39.702;2022-09-28T12:11:14;4.97;;;3.83;;
52650;SDS011;38537;47.226;39.702;2022-09-28T12:14:05;4.25;;;3.80;;
52650;SDS011;38537;47.226;39.702;2022-09-28T12:17:00;4.95;;;3.67;;
52650;SDS011;38537;47.226;39.702;2022-09-28T12:19:41;6.13;;;3.67;;
52650;SDS011;38537;47.226;39.702;2022-09-28T12:22:20;4.00;;;3.53;;
52650;SDS011;38537;47.226;39.702;2022-09-28T12:24:51;4.75;;;3.58;;
52650;SDS011;38537;47.226;39.702;2022-09-28T12:27:34;4.95;;;4.03;;
52650;SDS011;38537;47.226;39.702;2022-09-28T12:32:55;4.55;;;3.58;;
52650;SDS011;38537;47.226;39.702;2022-09-28T12:46:13;4.20;;;3.80;;
52650;SDS011;38537;47.226;39.702;2022-09-28T12:52:22;4.80;;;3.70;;
52650;SDS011;38537;47.226;39.702;2022-09-28T13:04:01;4.35;;;3.25;;
52650;SDS011;38537;47.226;39.702;2022-09-28T13:07:08;5.22;;;3.45;;
52650;SDS011;38537;47.226;39.702;2022-09-28T13:09:50;5.25;;;3.38;;
52650;SDS011;38537;47.226;39.702;2022-09-28T13:15:36;5.45;;;3.80;;
52650;SDS011;38537;47.226;39.702;2022-09-28T13:18:13;4.10;;;3.60;;
52650;SDS011;38537;47.226;39.702;2022-09-28T13:23:36;4.90;;;3.67;;
52650;SDS011;38537;47.226;39.702;2022-09-28T13:28:45;4.85;;;4.03;;
52650;SDS011;38537;47.226;39.702;2022-09-28T13:31:19;6.05;;;3.53;;
52650;SDS011;38537;47.226;39.702;2022-09-28T13:34:01;5.43;;;3.40;;
52650;SDS011;38537;47.226;39.702;2022-09-28T13:38:57;5.22;;;3.50;;
52650;SDS011;38537;47.226;39.702;2022-09-28T13:47:06;6.90;;;4.00;;
52650;SDS011;38537;47.226;39.702;2022-09-28T13:50:13;5.32;;;3.65;;
52650;SDS011;38537;47.226;39.702;2022-09-28T13:53:06;8.60;;;4.10;;
52650;SDS011;38537;47.226;39.702;2022-09-28T13:55:58;5.88;;;4.03;;
52650;SDS011;38537;47.226;39.702;2022-09-28T14:02:01;5.93;;;3.90;;
52650;SDS011;38537;47.226;39.702;2022-09-28T14:07:24;8.27;;;4.90;;
52650;SDS011;38537;47.226;39.702;2022-09-28T14:13:09;5.35;;;4.32;;
52650;SDS011;38537;47.226;39.702;2022-09-28T14:15:40;7.20;;;3.95;;
52650;SDS011;38537;47.226;39.702;2022-09-28T14:18:44;5.85;;;4.28;;
52650;SDS011;38537;47.226;39.702;2022-09-28T14:21:12;6.35;;;4.30;;
52650;SDS011;38537;47.226;39.702;2022-09-28T14:29:37;6.30;;;4.35;;
52650;SDS011;38537;47.226;39.702;2022-09-28T14:34:37;6.57;;;4.18;;
52650;SDS011;38537;47.226;39.702;2022-09-28T14:40:51;8.05;;;3.72;;
52650;SDS011;38537;47.226;39.702;2022-09-28T14:43:55;5.38;;;4.03;;
52650;SDS011;38537;47.226;39.702;2022-09-28T14:46:26;6.63;;;3.97;;
52650;SDS011;38537;47.226;39.702;2022-09-28T14:49:41;6.32;;;4.20;;
52650;SDS011;38537;47.226;39.702;2022-09-28T14:51:59;5.93;;;4.00;;
52650;SDS011;38537;47.226;39.702;2022-09-28T14:54:36;6.50;;;4.95;;
52650;SDS011;38537;47.226;39.702;2022-09-28T14:59:48;7.80;;;4.20;;
52650;SDS011;38537;47.226;39.702;2022-09-28T15:05:08;8.35;;;4.35;;
52650;SDS011;38537;47.226;39.702;2022-09-28T15:07:53;5.10;;;3.92;;
52650;SDS011;38537;47.226;39.702;2022-09-28T15:10:31;5.65;;;3.95;;
52650;SDS011;38537;47.226;39.702;2022-09-28T15:13:03;5.30;;;3.97;;
52650;SDS011;38537;47.226;39.702;2022-09-28T15:15:36;6.63;;;4.20;;
52650;SDS011;38537;47.226;39.702;2022-09-28T15:18:19;6.18;;;4.25;;
52650;SDS011;38537;47.226;39.702;2022-09-28T15:20:53;5.95;;;3.75;;
52650;SDS011;38537;47.226;39.702;2022-09-28T15:23:26;5.93;;;3.78;;
52650;SDS011;38537;47.226;39.702;2022-09-28T15:26:03;4.47;;;3.83;;
52650;SDS011;38537;47.226;39.702;2022-09-28T15:28:35;8.23;;;4.15;;
52650;SDS011;38537;47.226;39.702;2022-09-28T15:31:14;8.43;;;3.88;;
52650;SDS011;38537;47.226;39.702;2022-09-28T15:33:44;6.88;;;3.90;;
52650;SDS011;38537;47.226;39.702;2022-09-28T15:36:33;5.32;;;3.83;;
52650;SDS011;38537;47.226;39.702;2022-09-28T15:42:12;7.15;;;4.25;;
52650;SDS011;38537;47.226;39.702;2022-09-28T15:44:40;7.65;;;4.10;;
52650;SDS011;38537;47.226;39.702;2022-09-28T15:47:22;6.70;;;4.40;;
52650;SDS011;38537;47.226;39.702;2022-09-28T15:54:56;7.30;;;4.18;;
52650;SDS011;38537;47.226;39.702;2022-09-28T15:59:59;7.72;;;4.13;;
52650;SDS011;38537;47.226;39.702;2022-09-28T16:02:37;7.38;;;4.35;;
52650;SDS011;38537;47.226;39.702;2022-09-28T16:05:20;5.95;;;4.38;;
52650;SDS011;38537;47.226;39.702;2022-09-28T16:08:02;6.90;;;4.20;;
52650;SDS011;38537;47.226;39.702;2022-09-28T16:10:34;6.88;;;4.38;;
52650;SDS011;38537;47.226;39.702;2022-09-28T16:13:11;7.30;;;5.57;;
52650;SDS011;38537;47.226;39.702;2022-09-28T16:15:43;6.15;;;4.53;;
52650;SDS011;38537;47.226;39.702;2022-09-28T16:18:18;9.52;;;4.97;;
52650;SDS011;38537;47.226;39.702;2022-09-28T16:20:49;7.55;;;4.40;;
52650;SDS011;38537;47.226;39.702;2022-09-28T16:25:57;8.20;;;4.65;;
52650;SDS011;38537;47.226;39.702;2022-09-28T16:33:43;5.97;;;4.70;;
52650;SDS011;38537;47.226;39.702;2022-09-28T16:36:21;10.25;;;4.70;;
52650;SDS011;38537;47.226;39.702;2022-09-28T16:38:52;6.90;;;4.63;;
52650;SDS011;38537;47.226;39.702;2022-09-28T16:41:22;7.57;;;4.60;;
52650;SDS011;38537;47.226;39.702;2022-09-28T16:43:54;6.30;;;4.55;;
52650;SDS011;38537;47.226;39.702;2022-09-28T16:46:31;4.63;;;4.20;;
52650;SDS011;38537;47.226;39.702;2022-09-28T16:49:05;6.78;;;4.57;;
52650;SDS011;38537;47.226;39.702;2022-09-28T16:51:32;8.07;;;4.55;;
52650;SDS011;38537;47.226;39.702;2022-09-28T16:54:10;6.90;;;4.60;;
52650;SDS011;38537;47.226;39.702;2022-09-28T16:57:10;8.00;;;4.03;;
52650;SDS011;38537;47.226;39.702;2022-09-28T16:59:39;7.93;;;5.10;;
52650;SDS011;38537;47.226;39.702;2022-09-28T17:02:19;8.77;;;4.25;;
52650;SDS011;38537;47.226;39.702;2022-09-28T17:05:12;9.32;;;4.82;;
52650;SDS011;38537;47.226;39.702;2022-09-28T17:07:42;7.45;;;4.15;;
52650;SDS011;38537;47.226;39.702;2022-09-28T17:10:57;5.93;;;3.95;;
52650;SDS011;38537;47.226;39.702;2022-09-28T17:13:23;7.55;;;4.38;;
52650;SDS011;38537;47.226;39.702;2022-09-28T17:16:03;8.38;;;4.38;;
52650;SDS011;38537;47.226;39.702;2022-09-28T17:18:44;7.05;;;4.68;;
52650;SDS011;38537;47.226;39.702;2022-09-28T17:21:14;5.07;;;4.50;;
52650;SDS011;38537;47.226;39.702;2022-09-28T17:23:44;6.82;;;4.57;;
52650;SDS011;38537;47.226;39.702;2022-09-28T17:28:47;6.40;;;4.00;;
52650;SDS011;38537;47.226;39.702;2022-09-28T17:31:15;6.40;;;4.20;;
52650;SDS011;38537;47.226;39.702;2022-09-28T17:33:43;7.45;;;4.78;;
52650;SDS011;38537;47.226;39.702;2022-09-28T17:36:12;7.13;;;4.10;;
52650;SDS011;38537;47.226;39.702;2022-09-28T17:38:42;6.18;;;4.10;;
52650;SDS011;38537;47.226;39.702;2022-09-28T17:41:11;8.70;;;4.38;;
52650;SDS011;38537;47.226;39.702;2022-09-28T17:43:46;6.25;;;4.32;;
52650;SDS011;38537;47.226;39.702;2022-09-28T17:48:54;8.65;;;5.35;;
52650;SDS011;38537;47.226;39.702;2022-09-28T17:51:26;8.25;;;4.63;;
52650;SDS011;38537;47.226;39.702;2022-09-28T17:53:56;6.28;;;3.97;;
52650;SDS011;38537;47.226;39.702;2022-09-28T17:56:24;5.45;;;4.20;;
52650;SDS011;38537;47.226;39.702;2022-09-28T17:58:58;4.53;;;3.70;;
52650;SDS011;38537;47.226;39.702;2022-09-28T18:01:31;6.97;;;4.25;;
52650;SDS011;38537;47.226;39.702;2022-09-28T18:04:03;6.85;;;4.40;;
52650;SDS011;38537;47.226;39.702;2022-09-28T18:06:32;8.27;;;4.50;;
52650;SDS011;38537;47.226;39.702;2022-09-28T18:09:00;5.68;;;4.50;;
52650;SDS011;38537;47.226;39.702;2022-09-28T18:11:32;5.40;;;4.40;;
52650;SDS011;38537;47.226;39.702;2022-09-28T18:13:59;6.50;;;4.70;;
52650;SDS011;38537;47.226;39.702;2022-09-28T18:16:27;6.50;;;5.05;;
52650;SDS011;38537;47.226;39.702;2022-09-28T18:18:54;6.35;;;4.57;;
52650;SDS011;38537;47.226;39.702;2022-09-28T18:21:22;7.47;;;4.78;;
52650;SDS011;38537;47.226;39.702;2022-09-28T18:23:50;6.55;;;4.47;;
52650;SDS011;38537;47.226;39.702;2022-09-28T18:26:17;6.60;;;4.90;;
52650;SDS011;38537;47.226;39.702;2022-09-28T18:28:45;5.95;;;4.80;;
52650;SDS011;38537;47.226;39.702;2022-09-28T18:31:14;8.30;;;4.82;;
52650;SDS011;38537;47.226;39.702;2022-09-28T18:33:41;7.65;;;4.63;;